sensor_id;sensor_type;location;lat;lon;timestamp;temperature;humidity
44863;DHT22;30597;49.628;10.850;2023-08-24T00:00:22;28.20;50.50
44863;DHT22;30597;49.628;10.850;2023-08-24T00:02:47;28.20;50.70
44863;DHT22;30597;49.628;10.850;2023-08-24T00:05:13;28.30;50.90
44863;DHT22;30597;49.628;10.850;2023-08-24T00:07:39;28.20;51.00
44863;DHT22;30597;49.628;10.850;2023-08-24T00:10:05;28.20;51.10
44863;DHT22;30597;49.628;10.850;2023-08-24T00:12:32;28.20;51.30
44863;DHT22;30597;49.628;10.850;2023-08-24T00:14:58;28.30;51.50
44863;DHT22;30597;49.628;10.850;2023-08-24T00:17:24;28.20;51.60
44863;DHT22;30597;49.628;10.850;2023-08-24T00:19:50;28.30;51.70
44863;DHT22;30597;49.628;10.850;2023-08-24T00:22:15;28.20;51.80
44863;DHT22;30597;49.628;10.850;2023-08-24T00:24:41;28.20;51.90
44863;DHT22;30597;49.628;10.850;2023-08-24T00:27:06;28.20;52.10
44863;DHT22;30597;49.628;10.850;2023-08-24T00:29:32;28.30;52.40
44863;DHT22;30597;49.628;10.850;2023-08-24T00:31:57;28.20;52.50
44863;DHT22;30597;49.628;10.850;2023-08-24T00:34:23;28.20;52.70
44863;DHT22;30597;49.628;10.850;2023-08-24T00:36:48;28.20;53.00
44863;DHT22;30597;49.628;10.850;2023-08-24T00:39:14;28.30;53.20
44863;DHT22;30597;49.628;10.850;2023-08-24T00:41:41;28.20;53.20
44863;DHT22;30597;49.628;10.850;2023-08-24T00:44:07;28.20;53.60
44863;DHT22;30597;49.628;10.850;2023-08-24T00:46:34;28.20;53.90
44863;DHT22;30597;49.628;10.850;2023-08-24T00:49:00;28.20;54.10
44863;DHT22;30597;49.628;10.850;2023-08-24T00:51:26;28.30;54.30
44863;DHT22;30597;49.628;10.850;2023-08-24T00:53:52;28.20;54.60
44863;DHT22;30597;49.628;10.850;2023-08-24T00:56:17;28.20;54.60
44863;DHT22;30597;49.628;10.850;2023-08-24T00:58:46;28.20;54.80
44863;DHT22;30597;49.628;10.850;2023-08-24T01:01:12;28.20;55.30
44863;DHT22;30597;49.628;10.850;2023-08-24T01:03:38;28.20;55.60
44863;DHT22;30597;49.628;10.850;2023-08-24T01:06:03;28.20;55.50
44863;DHT22;30597;49.628;10.850;2023-08-24T01:08:29;28.20;55.90
44863;DHT22;30597;49.628;10.850;2023-08-24T01:10:59;28.20;56.00
44863;DHT22;30597;49.628;10.850;2023-08-24T01:13:50;28.20;56.40
44863;DHT22;30597;49.628;10.850;2023-08-24T01:16:20;28.10;56.70
44863;DHT22;30597;49.628;10.850;2023-08-24T01:18:56;28.20;57.00
44863;DHT22;30597;49.628;10.850;2023-08-24T01:21:22;28.10;57.00
44863;DHT22;30597;49.628;10.850;2023-08-24T01:23:59;28.10;57.40
44863;DHT22;30597;49.628;10.850;2023-08-24T01:26:29;28.10;57.70
44863;DHT22;30597;49.628;10.850;2023-08-24T01:28:54;28.10;57.50
44863;DHT22;30597;49.628;10.850;2023-08-24T01:31:20;28.20;57.50
44863;DHT22;30597;49.628;10.850;2023-08-24T01:33:46;28.10;57.40
44863;DHT22;30597;49.628;10.850;2023-08-24T01:36:13;28.20;57.50
44863;DHT22;30597;49.628;10.850;2023-08-24T01:38:40;28.10;57.50
44863;DHT22;30597;49.628;10.850;2023-08-24T01:41:25;28.10;57.30
44863;DHT22;30597;49.628;10.850;2023-08-24T01:43:53;28.10;57.50
44863;DHT22;30597;49.628;10.850;2023-08-24T01:46:22;28.10;57.70
44863;DHT22;30597;49.628;10.850;2023-08-24T01:48:48;28.20;57.70
44863;DHT22;30597;49.628;10.850;2023-08-24T01:51:15;28.10;57.60
44863;DHT22;30597;49.628;10.850;2023-08-24T01:53:41;28.10;57.90
44863;DHT22;30597;49.628;10.850;2023-08-24T01:56:11;28.10;58.00
44863;DHT22;30597;49.628;10.850;2023-08-24T01:58:37;28.10;57.90
44863;DHT22;30597;49.628;10.850;2023-08-24T02:01:04;28.10;57.80
44863;DHT22;30597;49.628;10.850;2023-08-24T02:03:30;28.10;58.20
44863;DHT22;30597;49.628;10.850;2023-08-24T02:05:56;28.10;58.20
44863;DHT22;30597;49.628;10.850;2023-08-24T02:08:22;28.10;58.60
44863;DHT22;30597;49.628;10.850;2023-08-24T02:10:47;28.10;58.60
44863;DHT22;30597;49.628;10.850;2023-08-24T02:13:13;28.10;58.90
44863;DHT22;30597;49.628;10.850;2023-08-24T02:15:38;28.10;59.00
44863;DHT22;30597;49.628;10.850;2023-08-24T02:18:07;28.10;59.40
44863;DHT22;30597;49.628;10.850;2023-08-24T02:20:37;28.10;59.30
44863;DHT22;30597;49.628;10.850;2023-08-24T02:23:06;28.10;59.50
44863;DHT22;30597;49.628;10.850;2023-08-24T02:25:32;28.10;59.60
44863;DHT22;30597;49.628;10.850;2023-08-24T02:27:58;28.10;60.00
44863;DHT22;30597;49.628;10.850;2023-08-24T02:30:24;28.10;60.10
44863;DHT22;30597;49.628;10.850;2023-08-24T02:32:50;28.10;60.10
44863;DHT22;30597;49.628;10.850;2023-08-24T02:35:16;28.20;59.80
44863;DHT22;30597;49.628;10.850;2023-08-24T02:37:41;28.00;59.90
44863;DHT22;30597;49.628;10.850;2023-08-24T02:40:07;28.00;59.80
44863;DHT22;30597;49.628;10.850;2023-08-24T02:42:35;28.00;60.10
44863;DHT22;30597;49.628;10.850;2023-08-24T02:45:00;28.00;60.20
44863;DHT22;30597;49.628;10.850;2023-08-24T02:47:26;28.00;60.10
44863;DHT22;30597;49.628;10.850;2023-08-24T02:49:52;28.00;59.90
44863;DHT22;30597;49.628;10.850;2023-08-24T02:52:17;28.00;60.00
44863;DHT22;30597;49.628;10.850;2023-08-24T02:54:43;28.00;60.10
44863;DHT22;30597;49.628;10.850;2023-08-24T02:57:09;28.00;60.20
44863;DHT22;30597;49.628;10.850;2023-08-24T02:59:34;28.00;60.30
44863;DHT22;30597;49.628;10.850;2023-08-24T03:02:00;28.10;60.30
44863;DHT22;30597;49.628;10.850;2023-08-24T03:04:26;28.00;60.10
44863;DHT22;30597;49.628;10.850;2023-08-24T03:06:51;28.00;60.20
44863;DHT22;30597;49.628;10.850;2023-08-24T03:09:17;28.00;60.80
44863;DHT22;30597;49.628;10.850;2023-08-24T03:11:42;28.00;60.20
44863;DHT22;30597;49.628;10.850;2023-08-24T03:14:08;28.10;60.30
44863;DHT22;30597;49.628;10.850;2023-08-24T03:16:34;28.10;60.30
44863;DHT22;30597;49.628;10.850;2023-08-24T03:18:59;28.00;60.10
44863;DHT22;30597;49.628;10.850;2023-08-24T03:21:25;28.10;60.30
44863;DHT22;30597;49.628;10.850;2023-08-24T03:23:50;28.00;60.30
44863;DHT22;30597;49.628;10.850;2023-08-24T03:26:16;28.10;60.60
44863;DHT22;30597;49.628;10.850;2023-08-24T03:28:42;27.90;60.30
44863;DHT22;30597;49.628;10.850;2023-08-24T03:31:08;28.10;60.30
44863;DHT22;30597;49.628;10.850;2023-08-24T03:33:36;28.10;60.60
44863;DHT22;30597;49.628;10.850;2023-08-24T03:36:01;28.00;60.30
44863;DHT22;30597;49.628;10.850;2023-08-24T03:38:28;27.90;60.40
44863;DHT22;30597;49.628;10.850;2023-08-24T03:41:01;28.00;60.30
44863;DHT22;30597;49.628;10.850;2023-08-24T03:43:30;28.00;60.60
44863;DHT22;30597;49.628;10.850;2023-08-24T03:45:56;27.90;60.60
44863;DHT22;30597;49.628;10.850;2023-08-24T03:48:21;27.90;60.60
44863;DHT22;30597;49.628;10.850;2023-08-24T03:50:47;28.00;60.60
44863;DHT22;30597;49.628;10.850;2023-08-24T03:53:12;27.90;60.60
44863;DHT22;30597;49.628;10.850;2023-08-24T03:55:38;27.90;60.50
44863;DHT22;30597;49.628;10.850;2023-08-24T03:58:03;28.00;60.60
44863;DHT22;30597;49.628;10.850;2023-08-24T04:00:29;27.90;60.50
44863;DHT22;30597;49.628;10.850;2023-08-24T04:02:56;27.90;60.50
44863;DHT22;30597;49.628;10.850;2023-08-24T04:05:21;28.00;60.50
44863;DHT22;30597;49.628;10.850;2023-08-24T04:07:47;27.90;60.90
44863;DHT22;30597;49.628;10.850;2023-08-24T04:10:13;27.90;60.80
44863;DHT22;30597;49.628;10.850;2023-08-24T04:12:38;27.90;60.90
44863;DHT22;30597;49.628;10.850;2023-08-24T04:15:04;28.00;61.00
44863;DHT22;30597;49.628;10.850;2023-08-24T04:17:30;27.90;61.20
44863;DHT22;30597;49.628;10.850;2023-08-24T04:19:56;27.90;61.40
44863;DHT22;30597;49.628;10.850;2023-08-24T04:22:21;27.90;62.20
44863;DHT22;30597;49.628;10.850;2023-08-24T04:24:47;27.90;61.80
44863;DHT22;30597;49.628;10.850;2023-08-24T04:27:12;27.90;61.80
44863;DHT22;30597;49.628;10.850;2023-08-24T04:29:38;27.90;61.90
44863;DHT22;30597;49.628;10.850;2023-08-24T04:32:03;28.00;62.00
44863;DHT22;30597;49.628;10.850;2023-08-24T04:34:29;27.90;62.10
44863;DHT22;30597;49.628;10.850;2023-08-24T04:36:55;27.80;62.00
44863;DHT22;30597;49.628;10.850;2023-08-24T04:39:20;27.80;62.00
44863;DHT22;30597;49.628;10.850;2023-08-24T04:41:46;27.90;62.20
44863;DHT22;30597;49.628;10.850;2023-08-24T04:44:11;27.90;62.40
44863;DHT22;30597;49.628;10.850;2023-08-24T04:46:37;27.80;62.10
44863;DHT22;30597;49.628;10.850;2023-08-24T04:49:03;27.90;62.20
44863;DHT22;30597;49.628;10.850;2023-08-24T04:51:29;27.80;63.00
44863;DHT22;30597;49.628;10.850;2023-08-24T04:53:54;27.80;61.90
44863;DHT22;30597;49.628;10.850;2023-08-24T04:56:20;27.90;62.10
44863;DHT22;30597;49.628;10.850;2023-08-24T04:58:53;27.80;62.10
44863;DHT22;30597;49.628;10.850;2023-08-24T05:01:19;27.90;62.20
44863;DHT22;30597;49.628;10.850;2023-08-24T05:03:45;27.80;62.00
44863;DHT22;30597;49.628;10.850;2023-08-24T05:06:10;27.90;62.20
44863;DHT22;30597;49.628;10.850;2023-08-24T05:08:36;27.90;62.10
44863;DHT22;30597;49.628;10.850;2023-08-24T05:11:01;27.80;62.10
44863;DHT22;30597;49.628;10.850;2023-08-24T05:13:35;27.90;62.30
44863;DHT22;30597;49.628;10.850;2023-08-24T05:16:00;27.80;62.00
44863;DHT22;30597;49.628;10.850;2023-08-24T05:18:26;27.80;62.00
44863;DHT22;30597;49.628;10.850;2023-08-24T05:20:51;27.80;62.10
44863;DHT22;30597;49.628;10.850;2023-08-24T05:23:17;27.80;62.10
44863;DHT22;30597;49.628;10.850;2023-08-24T05:25:43;27.80;62.00
44863;DHT22;30597;49.628;10.850;2023-08-24T05:28:08;27.80;62.10
44863;DHT22;30597;49.628;10.850;2023-08-24T05:30:34;27.80;62.10
44863;DHT22;30597;49.628;10.850;2023-08-24T05:32:59;27.90;62.10
44863;DHT22;30597;49.628;10.850;2023-08-24T05:35:25;27.80;61.90
44863;DHT22;30597;49.628;10.850;2023-08-24T05:37:52;27.80;62.30
44863;DHT22;30597;49.628;10.850;2023-08-24T05:40:18;27.80;62.50
44863;DHT22;30597;49.628;10.850;2023-08-24T05:42:43;27.80;61.50
44863;DHT22;30597;49.628;10.850;2023-08-24T05:45:09;27.90;61.60
44863;DHT22;30597;49.628;10.850;2023-08-24T05:47:36;27.80;61.20
44863;DHT22;30597;49.628;10.850;2023-08-24T05:50:02;27.80;61.40
44863;DHT22;30597;49.628;10.850;2023-08-24T05:52:27;27.80;61.30
44863;DHT22;30597;49.628;10.850;2023-08-24T05:54:53;27.90;61.30
44863;DHT22;30597;49.628;10.850;2023-08-24T05:57:18;27.90;61.20
44863;DHT22;30597;49.628;10.850;2023-08-24T05:59:44;27.80;58.50
44863;DHT22;30597;49.628;10.850;2023-08-24T06:02:09;27.90;55.50
44863;DHT22;30597;49.628;10.850;2023-08-24T06:04:35;27.60;54.30
44863;DHT22;30597;49.628;10.850;2023-08-24T06:07:00;27.70;53.60
44863;DHT22;30597;49.628;10.850;2023-08-24T06:09:26;27.70;53.30
44863;DHT22;30597;49.628;10.850;2023-08-24T06:11:52;27.60;53.10
44863;DHT22;30597;49.628;10.850;2023-08-24T06:14:17;27.60;52.80
44863;DHT22;30597;49.628;10.850;2023-08-24T06:16:43;27.60;52.60
44863;DHT22;30597;49.628;10.850;2023-08-24T06:19:09;27.70;52.30
44863;DHT22;30597;49.628;10.850;2023-08-24T06:21:34;27.70;52.10
44863;DHT22;30597;49.628;10.850;2023-08-24T06:24:00;27.90;51.80
44863;DHT22;30597;49.628;10.850;2023-08-24T06:26:26;27.70;51.60
44863;DHT22;30597;49.628;10.850;2023-08-24T06:28:51;27.70;51.30
44863;DHT22;30597;49.628;10.850;2023-08-24T06:31:17;27.80;51.10
44863;DHT22;30597;49.628;10.850;2023-08-24T06:33:43;27.70;51.00
44863;DHT22;30597;49.628;10.850;2023-08-24T06:36:08;27.70;51.00
44863;DHT22;30597;49.628;10.850;2023-08-24T06:38:34;27.80;51.00
44863;DHT22;30597;49.628;10.850;2023-08-24T06:41:00;27.60;50.70
44863;DHT22;30597;49.628;10.850;2023-08-24T06:43:26;27.60;50.60
44863;DHT22;30597;49.628;10.850;2023-08-24T06:45:54;27.70;50.40
44863;DHT22;30597;49.628;10.850;2023-08-24T06:48:19;27.70;50.50
44863;DHT22;30597;49.628;10.850;2023-08-24T06:50:45;27.70;50.30
44863;DHT22;30597;49.628;10.850;2023-08-24T06:53:10;27.70;50.40
44863;DHT22;30597;49.628;10.850;2023-08-24T06:55:36;27.60;50.50
44863;DHT22;30597;49.628;10.850;2023-08-24T06:58:02;27.70;50.70
44863;DHT22;30597;49.628;10.850;2023-08-24T07:00:30;27.70;51.00
44863;DHT22;30597;49.628;10.850;2023-08-24T07:02:56;27.60;51.10
44863;DHT22;30597;49.628;10.850;2023-08-24T07:05:22;27.60;51.40
44863;DHT22;30597;49.628;10.850;2023-08-24T07:07:51;27.60;51.50
44863;DHT22;30597;49.628;10.850;2023-08-24T07:10:17;27.60;51.70
44863;DHT22;30597;49.628;10.850;2023-08-24T07:12:43;27.50;51.80
44863;DHT22;30597;49.628;10.850;2023-08-24T07:15:11;27.70;52.40
44863;DHT22;30597;49.628;10.850;2023-08-24T07:17:37;27.60;52.40
44863;DHT22;30597;49.628;10.850;2023-08-24T07:20:04;27.50;52.40
44863;DHT22;30597;49.628;10.850;2023-08-24T07:22:37;27.60;52.60
44863;DHT22;30597;49.628;10.850;2023-08-24T07:25:03;27.70;52.70
44863;DHT22;30597;49.628;10.850;2023-08-24T07:27:31;27.60;52.80
44863;DHT22;30597;49.628;10.850;2023-08-24T07:29:57;27.60;52.90
44863;DHT22;30597;49.628;10.850;2023-08-24T07:32:23;27.60;52.90
44863;DHT22;30597;49.628;10.850;2023-08-24T07:34:49;27.60;53.00
44863;DHT22;30597;49.628;10.850;2023-08-24T07:37:14;27.70;53.20
44863;DHT22;30597;49.628;10.850;2023-08-24T07:39:40;27.60;53.10
44863;DHT22;30597;49.628;10.850;2023-08-24T07:42:05;27.60;53.10
44863;DHT22;30597;49.628;10.850;2023-08-24T07:44:31;27.60;53.20
44863;DHT22;30597;49.628;10.850;2023-08-24T07:46:57;27.60;53.40
44863;DHT22;30597;49.628;10.850;2023-08-24T07:49:22;27.60;53.40
44863;DHT22;30597;49.628;10.850;2023-08-24T07:51:48;27.60;53.50
44863;DHT22;30597;49.628;10.850;2023-08-24T07:54:13;27.60;53.50
44863;DHT22;30597;49.628;10.850;2023-08-24T07:56:39;27.60;53.50
44863;DHT22;30597;49.628;10.850;2023-08-24T07:59:05;27.60;53.60
44863;DHT22;30597;49.628;10.850;2023-08-24T08:01:31;27.60;53.70
44863;DHT22;30597;49.628;10.850;2023-08-24T08:03:56;27.70;53.70
44863;DHT22;30597;49.628;10.850;2023-08-24T08:06:22;27.60;53.80
44863;DHT22;30597;49.628;10.850;2023-08-24T08:08:50;27.60;53.90
44863;DHT22;30597;49.628;10.850;2023-08-24T08:11:16;27.60;54.00
44863;DHT22;30597;49.628;10.850;2023-08-24T08:13:42;27.60;54.00
44863;DHT22;30597;49.628;10.850;2023-08-24T08:16:08;27.60;53.90
44863;DHT22;30597;49.628;10.850;2023-08-24T08:18:35;27.70;54.00
44863;DHT22;30597;49.628;10.850;2023-08-24T08:21:01;27.60;54.00
44863;DHT22;30597;49.628;10.850;2023-08-24T08:23:33;27.80;54.20
44863;DHT22;30597;49.628;10.850;2023-08-24T08:25:59;27.60;54.00
44863;DHT22;30597;49.628;10.850;2023-08-24T08:28:24;27.80;54.20
44863;DHT22;30597;49.628;10.850;2023-08-24T08:30:49;27.60;54.10
44863;DHT22;30597;49.628;10.850;2023-08-24T08:33:16;27.70;54.10
44863;DHT22;30597;49.628;10.850;2023-08-24T08:35:41;27.70;54.10
44863;DHT22;30597;49.628;10.850;2023-08-24T08:38:07;27.70;54.20
44863;DHT22;30597;49.628;10.850;2023-08-24T08:40:37;27.70;54.30
44863;DHT22;30597;49.628;10.850;2023-08-24T08:43:03;27.80;54.30
44863;DHT22;30597;49.628;10.850;2023-08-24T08:45:29;27.80;54.30
44863;DHT22;30597;49.628;10.850;2023-08-24T08:48:01;27.80;54.20
44863;DHT22;30597;49.628;10.850;2023-08-24T08:50:29;27.80;54.30
44863;DHT22;30597;49.628;10.850;2023-08-24T08:52:57;27.80;54.30
44863;DHT22;30597;49.628;10.850;2023-08-24T08:55:24;27.80;54.20
44863;DHT22;30597;49.628;10.850;2023-08-24T08:57:51;27.90;54.40
44863;DHT22;30597;49.628;10.850;2023-08-24T09:00:19;27.90;54.30
44863;DHT22;30597;49.628;10.850;2023-08-24T09:02:45;27.90;54.30
44863;DHT22;30597;49.628;10.850;2023-08-24T09:05:14;27.90;54.40
44863;DHT22;30597;49.628;10.850;2023-08-24T09:07:40;27.90;54.30
44863;DHT22;30597;49.628;10.850;2023-08-24T09:10:06;28.00;54.30
44863;DHT22;30597;49.628;10.850;2023-08-24T09:12:33;27.90;54.30
44863;DHT22;30597;49.628;10.850;2023-08-24T09:14:59;27.90;54.30
44863;DHT22;30597;49.628;10.850;2023-08-24T09:17:24;28.00;54.30
44863;DHT22;30597;49.628;10.850;2023-08-24T09:19:51;27.90;54.20
44863;DHT22;30597;49.628;10.850;2023-08-24T09:22:17;27.90;54.30
44863;DHT22;30597;49.628;10.850;2023-08-24T09:24:42;28.00;54.30
44863;DHT22;30597;49.628;10.850;2023-08-24T09:27:19;28.10;54.50
44863;DHT22;30597;49.628;10.850;2023-08-24T09:29:51;28.00;54.50
44863;DHT22;30597;49.628;10.850;2023-08-24T09:32:29;28.00;54.50
44863;DHT22;30597;49.628;10.850;2023-08-24T09:34:55;28.10;54.50
44863;DHT22;30597;49.628;10.850;2023-08-24T09:37:21;28.00;54.40
44863;DHT22;30597;49.628;10.850;2023-08-24T09:39:46;28.00;54.40
44863;DHT22;30597;49.628;10.850;2023-08-24T09:42:13;28.00;54.40
44863;DHT22;30597;49.628;10.850;2023-08-24T09:44:43;28.10;54.50
44863;DHT22;30597;49.628;10.850;2023-08-24T09:47:10;28.20;54.60
44863;DHT22;30597;49.628;10.850;2023-08-24T09:49:38;28.00;54.30
44863;DHT22;30597;49.628;10.850;2023-08-24T09:52:08;28.00;54.30
44863;DHT22;30597;49.628;10.850;2023-08-24T09:54:37;28.10;54.60
44863;DHT22;30597;49.628;10.850;2023-08-24T09:57:05;28.10;54.40
44863;DHT22;30597;49.628;10.850;2023-08-24T09:59:32;28.10;54.60
44863;DHT22;30597;49.628;10.850;2023-08-24T10:02:00;28.20;54.60
44863;DHT22;30597;49.628;10.850;2023-08-24T10:04:33;28.20;54.40
44863;DHT22;30597;49.628;10.850;2023-08-24T10:07:11;28.20;54.50
44863;DHT22;30597;49.628;10.850;2023-08-24T10:12:23;28.10;54.50
44863;DHT22;30597;49.628;10.850;2023-08-24T10:15:02;28.10;54.50
44863;DHT22;30597;49.628;10.850;2023-08-24T10:17:29;28.20;54.60
44863;DHT22;30597;49.628;10.850;2023-08-24T10:19:58;28.20;54.50
44863;DHT22;30597;49.628;10.850;2023-08-24T10:22:27;28.30;54.30
44863;DHT22;30597;49.628;10.850;2023-08-24T10:24:54;28.20;54.60
44863;DHT22;30597;49.628;10.850;2023-08-24T10:27:22;28.30;54.60
44863;DHT22;30597;49.628;10.850;2023-08-24T10:29:49;28.30;54.60
44863;DHT22;30597;49.628;10.850;2023-08-24T10:32:14;28.30;54.40
44863;DHT22;30597;49.628;10.850;2023-08-24T10:34:40;28.30;54.60
44863;DHT22;30597;49.628;10.850;2023-08-24T10:37:10;28.30;54.40
44863;DHT22;30597;49.628;10.850;2023-08-24T10:39:37;28.30;54.70
44863;DHT22;30597;49.628;10.850;2023-08-24T10:42:03;28.30;55.20
44863;DHT22;30597;49.628;10.850;2023-08-24T10:44:36;28.30;54.70
44863;DHT22;30597;49.628;10.850;2023-08-24T10:49:42;28.30;54.50
44863;DHT22;30597;49.628;10.850;2023-08-24T10:52:18;28.30;54.70
44863;DHT22;30597;49.628;10.850;2023-08-24T10:54:46;28.30;54.60
44863;DHT22;30597;49.628;10.850;2023-08-24T10:57:47;28.30;54.80
44863;DHT22;30597;49.628;10.850;2023-08-24T11:00:21;28.30;54.70
44863;DHT22;30597;49.628;10.850;2023-08-24T11:02:49;28.30;54.80
44863;DHT22;30597;49.628;10.850;2023-08-24T11:05:20;28.30;54.90
44863;DHT22;30597;49.628;10.850;2023-08-24T11:08:03;28.30;54.70
44863;DHT22;30597;49.628;10.850;2023-08-24T11:10:45;28.30;54.80
44863;DHT22;30597;49.628;10.850;2023-08-24T11:13:15;28.30;54.60
44863;DHT22;30597;49.628;10.850;2023-08-24T11:15:46;28.40;54.90
44863;DHT22;30597;49.628;10.850;2023-08-24T11:18:28;28.30;54.70
44863;DHT22;30597;49.628;10.850;2023-08-24T11:21:01;28.30;54.60
44863;DHT22;30597;49.628;10.850;2023-08-24T11:23:28;28.30;54.80
44863;DHT22;30597;49.628;10.850;2023-08-24T11:25:54;28.30;54.80
44863;DHT22;30597;49.628;10.850;2023-08-24T11:28:23;28.30;54.80
44863;DHT22;30597;49.628;10.850;2023-08-24T11:30:49;28.30;54.70
44863;DHT22;30597;49.628;10.850;2023-08-24T11:33:26;28.30;54.60
44863;DHT22;30597;49.628;10.850;2023-08-24T11:35:53;28.30;54.70
44863;DHT22;30597;49.628;10.850;2023-08-24T11:38:19;28.40;54.60
44863;DHT22;30597;49.628;10.850;2023-08-24T11:40:44;28.30;54.60
44863;DHT22;30597;49.628;10.850;2023-08-24T11:43:10;28.40;54.50
44863;DHT22;30597;49.628;10.850;2023-08-24T11:45:36;28.40;54.70
44863;DHT22;30597;49.628;10.850;2023-08-24T11:48:03;28.40;54.60
44863;DHT22;30597;49.628;10.850;2023-08-24T11:50:33;28.40;54.60
44863;DHT22;30597;49.628;10.850;2023-08-24T11:53:00;28.40;54.60
44863;DHT22;30597;49.628;10.850;2023-08-24T11:55:26;28.40;54.50
44863;DHT22;30597;49.628;10.850;2023-08-24T11:57:53;28.40;54.50
44863;DHT22;30597;49.628;10.850;2023-08-24T12:00:20;28.40;54.40
44863;DHT22;30597;49.628;10.850;2023-08-24T12:02:47;28.40;54.50
44863;DHT22;30597;49.628;10.850;2023-08-24T12:05:23;28.40;54.40
44863;DHT22;30597;49.628;10.850;2023-08-24T12:07:50;28.40;54.40
44863;DHT22;30597;49.628;10.850;2023-08-24T12:10:16;28.40;54.40
44863;DHT22;30597;49.628;10.850;2023-08-24T12:12:42;28.40;54.20
44863;DHT22;30597;49.628;10.850;2023-08-24T12:15:14;28.40;54.30
44863;DHT22;30597;49.628;10.850;2023-08-24T12:17:44;28.40;54.30
44863;DHT22;30597;49.628;10.850;2023-08-24T12:20:18;28.40;54.30
44863;DHT22;30597;49.628;10.850;2023-08-24T12:22:43;28.40;54.40
44863;DHT22;30597;49.628;10.850;2023-08-24T12:25:09;28.50;54.40
44863;DHT22;30597;49.628;10.850;2023-08-24T12:27:36;28.50;54.40
44863;DHT22;30597;49.628;10.850;2023-08-24T12:30:02;28.40;54.30
44863;DHT22;30597;49.628;10.850;2023-08-24T12:32:42;28.40;54.20
44863;DHT22;30597;49.628;10.850;2023-08-24T12:35:08;28.40;54.40
44863;DHT22;30597;49.628;10.850;2023-08-24T12:37:35;28.40;54.30
44863;DHT22;30597;49.628;10.850;2023-08-24T12:40:04;28.50;54.40
44863;DHT22;30597;49.628;10.850;2023-08-24T12:42:31;28.50;54.50
44863;DHT22;30597;49.628;10.850;2023-08-24T12:44:56;28.60;54.40
44863;DHT22;30597;49.628;10.850;2023-08-24T12:47:22;28.40;54.20
44863;DHT22;30597;49.628;10.850;2023-08-24T12:49:47;28.50;54.40
44863;DHT22;30597;49.628;10.850;2023-08-24T12:52:13;28.40;54.40
44863;DHT22;30597;49.628;10.850;2023-08-24T12:54:39;28.40;54.30
44863;DHT22;30597;49.628;10.850;2023-08-24T12:57:04;28.40;54.40
44863;DHT22;30597;49.628;10.850;2023-08-24T12:59:30;28.40;54.30
44863;DHT22;30597;49.628;10.850;2023-08-24T13:01:55;28.40;54.40
44863;DHT22;30597;49.628;10.850;2023-08-24T13:04:21;28.40;54.30
44863;DHT22;30597;49.628;10.850;2023-08-24T13:06:47;28.40;54.40
44863;DHT22;30597;49.628;10.850;2023-08-24T13:09:12;28.40;54.40
44863;DHT22;30597;49.628;10.850;2023-08-24T13:11:39;28.40;54.40
44863;DHT22;30597;49.628;10.850;2023-08-24T13:14:05;28.50;54.40
44863;DHT22;30597;49.628;10.850;2023-08-24T13:16:30;28.50;54.40
44863;DHT22;30597;49.628;10.850;2023-08-24T13:18:56;28.50;54.40
44863;DHT22;30597;49.628;10.850;2023-08-24T13:21:21;28.50;54.50
44863;DHT22;30597;49.628;10.850;2023-08-24T13:23:47;28.50;54.40
44863;DHT22;30597;49.628;10.850;2023-08-24T13:26:20;28.50;54.40
44863;DHT22;30597;49.628;10.850;2023-08-24T13:28:47;28.60;54.60
44863;DHT22;30597;49.628;10.850;2023-08-24T13:31:13;28.50;54.50
44863;DHT22;30597;49.628;10.850;2023-08-24T13:33:38;28.50;54.40
44863;DHT22;30597;49.628;10.850;2023-08-24T13:36:04;28.50;54.40
44863;DHT22;30597;49.628;10.850;2023-08-24T13:38:30;28.50;54.30
44863;DHT22;30597;49.628;10.850;2023-08-24T13:40:56;28.50;54.40
44863;DHT22;30597;49.628;10.850;2023-08-24T13:43:21;28.60;54.40
44863;DHT22;30597;49.628;10.850;2023-08-24T13:45:48;28.50;54.40
44863;DHT22;30597;49.628;10.850;2023-08-24T13:48:13;28.50;54.20
44863;DHT22;30597;49.628;10.850;2023-08-24T13:50:41;28.60;54.40
44863;DHT22;30597;49.628;10.850;2023-08-24T13:53:06;28.50;54.40
44863;DHT22;30597;49.628;10.850;2023-08-24T13:55:32;28.50;54.40
44863;DHT22;30597;49.628;10.850;2023-08-24T13:57:57;28.50;54.30
44863;DHT22;30597;49.628;10.850;2023-08-24T14:00:23;28.60;54.40
44863;DHT22;30597;49.628;10.850;2023-08-24T14:02:49;28.50;54.30
44863;DHT22;30597;49.628;10.850;2023-08-24T14:05:15;28.60;54.40
44863;DHT22;30597;49.628;10.850;2023-08-24T14:07:41;28.50;54.40
44863;DHT22;30597;49.628;10.850;2023-08-24T14:10:07;28.60;54.40
44863;DHT22;30597;49.628;10.850;2023-08-24T14:12:33;28.50;54.30
44863;DHT22;30597;49.628;10.850;2023-08-24T14:14:59;28.50;54.50
44863;DHT22;30597;49.628;10.850;2023-08-24T14:17:25;28.50;55.10
44863;DHT22;30597;49.628;10.850;2023-08-24T14:19:50;28.50;54.40
44863;DHT22;30597;49.628;10.850;2023-08-24T14:22:16;28.60;54.30
44863;DHT22;30597;49.628;10.850;2023-08-24T14:24:42;28.50;54.40
44863;DHT22;30597;49.628;10.850;2023-08-24T14:27:07;28.60;54.40
44863;DHT22;30597;49.628;10.850;2023-08-24T14:29:33;28.60;54.40
44863;DHT22;30597;49.628;10.850;2023-08-24T14:31:59;28.50;54.40
44863;DHT22;30597;49.628;10.850;2023-08-24T14:34:24;28.50;54.40
44863;DHT22;30597;49.628;10.850;2023-08-24T14:36:50;28.60;54.50
44863;DHT22;30597;49.628;10.850;2023-08-24T14:39:15;28.50;54.40
44863;DHT22;30597;49.628;10.850;2023-08-24T14:41:41;28.50;54.40
44863;DHT22;30597;49.628;10.850;2023-08-24T14:44:06;28.50;54.40
44863;DHT22;30597;49.628;10.850;2023-08-24T14:46:32;28.60;54.40
44863;DHT22;30597;49.628;10.850;2023-08-24T14:48:59;28.50;54.40
44863;DHT22;30597;49.628;10.850;2023-08-24T14:51:24;28.60;54.40
44863;DHT22;30597;49.628;10.850;2023-08-24T14:53:50;28.60;54.40
44863;DHT22;30597;49.628;10.850;2023-08-24T14:56:15;28.50;54.40
44863;DHT22;30597;49.628;10.850;2023-08-24T14:58:41;28.60;54.40
44863;DHT22;30597;49.628;10.850;2023-08-24T15:01:06;28.60;54.30
44863;DHT22;30597;49.628;10.850;2023-08-24T15:03:32;28.60;54.30
44863;DHT22;30597;49.628;10.850;2023-08-24T15:05:59;28.70;54.40
44863;DHT22;30597;49.628;10.850;2023-08-24T15:08:27;28.70;54.50
44863;DHT22;30597;49.628;10.850;2023-08-24T15:10:54;28.70;54.40
44863;DHT22;30597;49.628;10.850;2023-08-24T15:13:20;28.60;54.30
44863;DHT22;30597;49.628;10.850;2023-08-24T15:15:46;28.60;54.10
44863;DHT22;30597;49.628;10.850;2023-08-24T15:18:11;28.60;54.20